createdAt,value
2023-04-01T00:02:07.821Z,9.30
2023-04-01T00:04:56.538Z,12.70
2023-04-01T00:07:40.092Z,12.00
2023-04-01T00:10:29.747Z,6.10
2023-04-01T00:13:14.305Z,6.40
2023-04-01T00:16:03.584Z,6.90
2023-04-01T00:18:48.614Z,6.60
2023-04-01T00:21:59.378Z,7.00
2023-04-01T00:25:41.074Z,8.70
2023-04-01T00:29:32.082Z,8.00
2023-04-01T00:33:15.779Z,5.40
2023-04-01T00:37:22.553Z,7.20
2023-04-01T00:41:10.472Z,9.60
2023-04-01T00:45:16.807Z,11.50
2023-04-01T00:49:08.036Z,10.70
2023-04-01T00:53:00.952Z,6.00
2023-04-01T00:57:09.159Z,23.50
2023-04-01T01:00:36.527Z,15.70
2023-04-01T01:04:12.512Z,8.50
2023-04-01T01:08:29.029Z,14.30
2023-04-01T01:12:17.184Z,8.80
2023-04-01T01:15:57.214Z,8.40
2023-04-01T01:20:25.422Z,8.10
2023-04-01T01:24:27.491Z,21.00
2023-04-01T01:28:51.181Z,15.60
2023-04-01T01:33:10.202Z,29.20
2023-04-01T01:37:19.043Z,14.50
2023-04-01T01:40:58.753Z,17.30
2023-04-01T01:44:49.237Z,15.60
2023-04-01T01:48:56.100Z,17.00
2023-04-01T01:52:55.733Z,12.90
2023-04-01T01:56:45.647Z,8.70
2023-04-01T02:00:53.972Z,11.50
2023-04-01T02:04:28.156Z,19.40
2023-04-01T02:08:17.422Z,11.60
2023-04-01T02:11:48.740Z,5.60
2023-04-01T02:15:44.564Z,6.70
2023-04-01T02:19:41.464Z,6.50
2023-04-01T02:23:33.120Z,6.10
2023-04-01T02:27:11.114Z,6.80
2023-04-01T02:31:11.456Z,9.20
2023-04-01T02:35:02.044Z,7.50
2023-04-01T02:39:10.159Z,7.40
2023-04-01T02:43:17.193Z,9.90
2023-04-01T02:46:45.110Z,6.50
2023-04-01T02:50:20.492Z,14.90
2023-04-01T02:53:26.827Z,9.00
2023-04-01T02:56:22.293Z,14.30
2023-04-01T03:00:13.000Z,7.50
2023-04-01T03:03:46.981Z,8.50
2023-04-01T03:07:20.823Z,7.70
2023-04-01T03:11:03.968Z,6.10
2023-04-01T03:15:12.088Z,4.70
2023-04-01T03:19:20.214Z,4.30
2023-04-01T03:23:25.663Z,8.20
2023-04-01T03:27:04.997Z,5.80
2023-04-01T03:30:30.349Z,7.60
2023-04-01T03:34:38.599Z,9.10
2023-04-01T03:38:26.776Z,17.20
2023-04-01T03:42:35.114Z,14.50
2023-04-01T03:46:29.523Z,13.20
2023-04-01T03:50:37.658Z,12.00
2023-04-01T03:54:38.896Z,13.00
2023-04-01T03:58:07.836Z,9.70
2023-04-01T04:01:38.375Z,9.90
2023-04-01T04:05:29.041Z,11.80
2023-04-01T04:09:37.150Z,9.40
2023-04-01T04:13:21.872Z,12.40
2023-04-01T04:17:17.133Z,11.50
2023-04-01T04:21:25.425Z,14.50
2023-04-01T04:25:15.067Z,11.10
2023-04-01T04:28:22.129Z,10.00
2023-04-01T04:30:55.850Z,11.40
2023-04-01T04:34:09.836Z,8.30
2023-04-01T04:37:36.929Z,8.80
2023-04-01T04:40:11.845Z,8.10
2023-04-01T04:43:17.526Z,8.00
2023-04-01T04:45:52.895Z,7.90
2023-04-01T04:48:45.247Z,9.50
2023-04-01T04:51:44.096Z,8.00
2023-04-01T04:54:22.174Z,7.70
2023-04-01T04:57:22.886Z,7.60
2023-04-01T05:00:13.185Z,9.10
2023-04-01T05:03:43.383Z,11.20
2023-04-01T05:06:30.446Z,10.00
2023-04-01T05:09:37.150Z,9.30
2023-04-01T05:12:45.508Z,7.80
2023-04-01T05:16:07.714Z,9.20
2023-04-01T05:19:01.813Z,8.10
2023-04-01T05:22:19.838Z,12.10
2023-04-01T05:25:12.242Z,11.70
2023-04-01T05:28:19.535Z,33.20
2023-04-01T05:31:29.428Z,32.40
2023-04-01T05:34:47.219Z,32.40
2023-04-01T05:38:29.754Z,43.50
2023-04-01T05:41:59.353Z,37.60
2023-04-01T05:44:56.748Z,31.00
2023-04-01T05:48:42.304Z,19.20
2023-04-01T05:52:04.645Z,26.10
2023-04-01T05:55:01.510Z,19.80
2023-04-01T05:58:02.530Z,27.70
2023-04-01T06:00:42.890Z,37.30
2023-04-01T06:03:47.413Z,19.70
2023-04-01T06:06:37.730Z,12.20
2023-04-01T06:09:49.802Z,11.80
2023-04-01T06:12:41.779Z,11.90
2023-04-01T06:15:50.426Z,133.10
2023-04-01T06:19:01.335Z,49.40
2023-04-01T06:22:38.466Z,17.60
2023-04-01T06:25:53.641Z,12.20
2023-04-01T06:29:18.022Z,11.60
2023-04-01T06:33:24.033Z,13.70
2023-04-01T06:37:04.796Z,15.80
2023-04-01T06:39:59.472Z,21.50
2023-04-01T06:43:50.486Z,12.00
2023-04-01T06:47:09.712Z,6.50
2023-04-01T06:50:45.012Z,7.60
2023-04-01T06:53:51.682Z,7.00
2023-04-01T06:56:47.615Z,6.70
2023-04-01T07:00:21.736Z,5.00
2023-04-01T07:03:06.916Z,30.60
2023-04-01T07:05:43.382Z,17.00
2023-04-01T07:08:29.541Z,17.10
2023-04-01T07:11:49.370Z,19.00
2023-04-01T07:15:20.620Z,23.90
2023-04-01T07:18:55.981Z,15.90
2023-04-01T07:22:15.188Z,14.90
2023-04-01T07:25:26.399Z,14.30
2023-04-01T07:28:23.219Z,10.30
2023-04-01T07:31:17.473Z,13.90
2023-04-01T07:35:24.585Z,13.90
2023-04-01T07:39:08.768Z,13.70
2023-04-01T07:43:02.858Z,9.50
2023-04-01T07:46:04.464Z,2.50
2023-04-01T07:49:24.706Z,2.80
2023-04-01T07:52:02.728Z,1.40
2023-04-01T07:55:14.430Z,1.20
2023-04-01T07:57:58.518Z,1.90
2023-04-01T08:00:47.192Z,1.60
2023-04-01T08:04:13.464Z,1.30
2023-04-01T08:07:22.677Z,1.00
2023-04-01T08:11:11.562Z,1.70
2023-04-01T08:14:26.782Z,2.00
2023-04-01T08:17:46.771Z,2.60
2023-04-01T08:20:48.331Z,1.30
2023-04-01T08:23:24.079Z,3.30
2023-04-01T08:26:49.333Z,3.30
2023-04-01T08:29:22.408Z,2.50
2023-04-01T08:32:41.356Z,2.90
2023-04-01T08:35:32.627Z,3.80
2023-04-01T08:38:35.814Z,3.30
2023-04-01T08:41:26.895Z,2.60
2023-04-01T08:44:37.255Z,2.60
2023-04-01T08:47:35.417Z,2.70
2023-04-01T08:51:15.390Z,5.40
2023-04-01T08:54:41.327Z,4.00
2023-04-01T08:57:56.751Z,2.80
2023-04-01T09:01:21.305Z,2.20
2023-04-01T09:04:18.664Z,4.10
2023-04-01T09:07:24.108Z,4.00
2023-04-01T09:10:57.195Z,9.30
2023-04-01T09:14:36.351Z,4.20
2023-04-01T09:17:25.800Z,3.10
2023-04-01T09:20:43.870Z,4.20
2023-04-01T09:23:47.170Z,5.50
2023-04-01T09:26:37.578Z,2.80
2023-04-01T09:29:45.648Z,3.20
2023-04-01T09:33:11.727Z,3.60
2023-04-01T09:36:29.551Z,2.60
2023-04-01T09:39:35.645Z,3.20
2023-04-01T09:43:03.977Z,3.10
2023-04-01T09:48:51.959Z,4.00
2023-04-01T09:52:03.065Z,2.20
2023-04-01T09:54:54.456Z,1.90
2023-04-01T09:57:43.204Z,2.40
2023-04-01T10:01:10.510Z,2.80
2023-04-01T10:04:28.406Z,2.70
2023-04-01T10:07:50.532Z,2.30
2023-04-01T10:10:41.055Z,2.50
2023-04-01T10:13:24.080Z,3.40
2023-04-01T10:16:33.229Z,4.70
2023-04-01T10:19:41.739Z,4.40
2023-04-01T10:22:54.197Z,4.20
2023-04-01T10:26:32.313Z,5.20
2023-04-01T10:29:58.527Z,5.90
2023-04-01T10:33:35.145Z,5.20
2023-04-01T10:36:50.592Z,8.00
2023-04-01T10:40:16.253Z,5.70
2023-04-01T10:43:46.468Z,6.10
2023-04-01T10:46:37.909Z,6.70
2023-04-01T10:49:32.241Z,7.00
2023-04-01T10:53:02.369Z,6.50
2023-04-01T10:56:57.423Z,6.40
2023-04-01T11:00:45.351Z,6.20
2023-04-01T11:03:46.218Z,6.00
2023-04-01T11:09:44.440Z,6.20
2023-04-01T11:13:09.364Z,7.30
2023-04-01T11:16:39.119Z,7.90
2023-04-01T11:20:12.788Z,6.50
2023-04-01T11:24:02.245Z,5.90
2023-04-01T11:27:18.298Z,6.10
2023-04-01T11:30:43.552Z,5.10
2023-04-01T11:33:32.896Z,21.70
2023-04-01T11:37:04.891Z,8.30
2023-04-01T11:39:59.426Z,6.50
2023-04-01T11:43:34.474Z,3.50
2023-04-01T11:46:43.591Z,4.80
2023-04-01T11:50:09.650Z,6.50
2023-04-01T11:53:48.276Z,3.60
2023-04-01T11:56:25.659Z,4.30
2023-04-01T11:59:16.088Z,3.60
2023-04-01T12:02:00.000Z,5.10
2023-04-01T12:05:05.551Z,4.50
2023-04-01T12:08:31.295Z,4.20
2023-04-01T12:12:10.040Z,3.20
2023-04-01T12:15:01.533Z,6.80
2023-04-01T12:17:55.512Z,5.40
2023-04-01T12:20:28.212Z,5.80
2023-04-01T12:23:48.994Z,6.80
2023-04-01T12:26:38.579Z,5.20
2023-04-01T12:29:16.198Z,4.70
2023-04-01T12:32:26.219Z,6.30
2023-04-01T12:35:11.212Z,6.50
2023-04-01T12:38:09.126Z,4.50
2023-04-01T12:41:19.599Z,5.60
2023-04-01T12:44:28.923Z,4.70
2023-04-01T12:47:25.352Z,5.80
2023-04-01T12:50:07.911Z,7.50
2023-04-01T12:52:57.107Z,7.10
2023-04-01T12:55:42.475Z,9.00
2023-04-01T12:58:55.637Z,5.30
2023-04-01T13:02:15.900Z,4.70
2023-04-01T13:05:16.497Z,7.80
2023-04-01T13:08:23.466Z,4.70
2023-04-01T13:11:41.079Z,6.50
2023-04-01T13:15:19.109Z,4.20
2023-04-01T13:18:32.002Z,4.10
2023-04-01T13:21:22.975Z,4.20
2023-04-01T13:24:48.330Z,4.60
2023-04-01T13:27:41.849Z,2.90
2023-04-01T13:30:24.317Z,4.50
2023-04-01T13:33:12.538Z,5.70
2023-04-01T13:36:35.602Z,6.80
2023-04-01T13:39:38.346Z,5.80
2023-04-01T13:43:03.905Z,8.10
2023-04-01T13:45:59.128Z,7.10
2023-04-01T13:48:44.108Z,5.50
2023-04-01T13:51:55.893Z,6.10
2023-04-01T13:55:01.967Z,4.00
2023-04-01T13:57:49.803Z,3.80
2023-04-01T14:00:43.842Z,4.30
2023-04-01T14:03:40.448Z,5.20
2023-04-01T14:06:34.749Z,3.70
2023-04-01T14:09:20.255Z,3.00
2023-04-01T14:12:25.115Z,4.10
2023-04-01T14:15:22.413Z,5.50
2023-04-01T14:18:00.921Z,5.30
2023-04-01T14:21:18.464Z,4.50
2023-04-01T14:24:21.288Z,3.80
2023-04-01T14:27:21.693Z,4.10
2023-04-01T14:30:09.127Z,4.40
2023-04-01T14:33:44.340Z,4.10
2023-04-01T14:36:46.986Z,5.70
2023-04-01T14:40:14.359Z,4.50
2023-04-01T14:43:53.926Z,4.40
2023-04-01T14:46:45.955Z,3.90
2023-04-01T14:49:41.001Z,4.10
2023-04-01T14:52:17.435Z,5.80
2023-04-01T14:55:40.356Z,5.00
2023-04-01T14:58:34.843Z,6.00
2023-04-01T15:01:43.590Z,5.90
2023-04-01T15:04:53.668Z,6.10
2023-04-01T15:07:39.928Z,4.20
2023-04-01T15:11:23.863Z,5.70
2023-04-01T15:14:28.068Z,8.20
2023-04-01T15:17:11.028Z,8.30
2023-04-01T15:20:11.361Z,6.60
2023-04-01T15:23:41.190Z,5.10
2023-04-01T15:27:13.862Z,9.00
2023-04-01T15:30:08.474Z,6.30
2023-04-01T15:33:25.604Z,10.10
2023-04-01T15:36:48.870Z,7.20
2023-04-01T15:40:20.243Z,5.80
2023-04-01T15:43:54.513Z,8.30
2023-04-01T15:46:49.021Z,6.50
2023-04-01T15:50:16.261Z,6.80
2023-04-01T15:53:25.328Z,7.10
2023-04-01T15:56:45.837Z,5.80
2023-04-01T16:00:08.685Z,8.90
2023-04-01T16:02:54.519Z,7.50
2023-04-01T16:06:11.601Z,13.30
2023-04-01T16:09:14.312Z,9.20
2023-04-01T16:12:24.522Z,7.30
2023-04-01T16:15:25.574Z,5.60
2023-04-01T16:18:33.530Z,10.40
2023-04-01T16:21:45.936Z,12.50
2023-04-01T16:24:46.666Z,11.40
2023-04-01T16:27:19.536Z,13.80
2023-04-01T16:29:49.558Z,13.10
2023-04-01T16:32:41.278Z,11.80
2023-04-01T16:35:59.790Z,9.30
2023-04-01T16:38:57.164Z,9.10
2023-04-01T16:41:32.880Z,5.20
2023-04-01T16:44:12.271Z,9.00
2023-04-01T16:47:13.581Z,6.50
2023-04-01T16:53:06.852Z,6.60
2023-04-01T16:56:06.056Z,12.50
2023-04-01T16:59:03.332Z,9.70
2023-04-01T17:02:14.735Z,8.60
2023-04-01T17:04:53.427Z,10.10
2023-04-01T17:07:47.816Z,17.10
2023-04-01T17:10:45.902Z,18.80
2023-04-01T17:13:36.690Z,19.30
2023-04-01T17:16:27.562Z,21.40
2023-04-01T17:19:25.048Z,26.30
2023-04-01T17:22:40.748Z,27.80
2023-04-01T17:25:52.832Z,22.70
2023-04-01T17:28:51.279Z,21.10
2023-04-01T17:31:41.633Z,21.50
2023-04-01T17:34:27.234Z,24.10
2023-04-01T17:37:37.192Z,16.80
2023-04-01T17:40:52.500Z,17.30
2023-04-01T17:44:04.775Z,16.90
2023-04-01T17:47:23.358Z,21.50
2023-04-01T17:50:54.879Z,37.10
2023-04-01T17:54:06.955Z,72.50
2023-04-01T17:57:00.962Z,57.60
2023-04-01T18:00:07.417Z,49.10
2023-04-01T18:03:15.121Z,45.70
2023-04-01T18:06:26.559Z,33.00
2023-04-01T18:09:55.458Z,33.00
2023-04-01T18:13:16.997Z,33.10
2023-04-01T18:16:54.944Z,33.50
2023-04-01T18:19:49.095Z,33.70
2023-04-01T18:23:03.668Z,33.10
2023-04-01T18:25:49.869Z,35.00
2023-04-01T18:29:13.278Z,34.40
2023-04-01T18:31:48.079Z,36.70
2023-04-01T18:34:55.257Z,87.00
2023-04-01T18:37:52.552Z,59.30
2023-04-01T18:40:53.399Z,56.00
2023-04-01T18:44:30.756Z,64.60
2023-04-01T18:47:18.335Z,64.80
2023-04-01T18:50:01.467Z,57.30
2023-04-01T18:52:54.062Z,63.50
2023-04-01T18:55:44.192Z,68.60
2023-04-01T18:59:12.343Z,40.80
2023-04-01T19:02:24.049Z,41.10
2023-04-01T19:05:24.869Z,28.70
2023-04-01T19:08:01.122Z,42.00
2023-04-01T19:10:34.965Z,54.40
2023-04-01T19:13:26.476Z,52.50
2023-04-01T19:16:39.284Z,60.80
2023-04-01T19:19:47.239Z,60.90
2023-04-01T19:22:47.944Z,45.00
2023-04-01T19:25:53.203Z,43.30
2023-04-01T19:29:11.807Z,35.70
2023-04-01T19:32:22.637Z,34.30
2023-04-01T19:35:14.651Z,25.10
2023-04-01T19:38:03.065Z,30.00
2023-04-01T19:40:36.077Z,28.00
2023-04-01T19:43:22.244Z,26.70
2023-04-01T19:47:15.354Z,28.00
2023-04-01T19:50:18.195Z,46.20
2023-04-01T19:53:02.013Z,40.60
2023-04-01T19:56:03.162Z,42.10
2023-04-01T19:59:39.333Z,53.90
2023-04-01T20:03:02.539Z,47.50
2023-04-01T20:06:56.739Z,39.40
2023-04-01T20:10:27.113Z,27.90
2023-04-01T20:13:47.658Z,28.30
2023-04-01T20:16:24.321Z,17.70
2023-04-01T20:20:15.525Z,19.50
2023-04-01T20:23:46.219Z,19.70
2023-04-01T20:27:10.535Z,18.70
2023-04-01T20:30:39.301Z,22.70
2023-04-01T20:34:06.763Z,38.70
2023-04-01T20:37:33.532Z,29.90
2023-04-01T20:40:53.394Z,33.50
2023-04-01T20:44:51.164Z,44.70
2023-04-01T20:48:43.738Z,51.10
2023-04-01T20:51:55.411Z,42.70
2023-04-01T20:56:06.690Z,34.60
2023-04-01T20:59:25.029Z,74.30
2023-04-01T21:02:57.720Z,75.40
2023-04-01T21:06:36.003Z,65.70
2023-04-01T21:13:32.217Z,63.60
2023-04-01T21:17:01.732Z,54.50
2023-04-01T21:20:37.198Z,49.70
2023-04-01T21:23:59.258Z,33.20
2023-04-01T21:27:48.173Z,27.50
2023-04-01T21:31:44.395Z,87.60
2023-04-01T21:35:30.927Z,172.10
2023-04-01T21:39:06.357Z,61.60
2023-04-01T21:42:49.568Z,96.20
2023-04-01T21:46:57.939Z,157.20
2023-04-01T21:51:10.135Z,84.60
2023-04-01T21:54:57.959Z,47.60
2023-04-01T21:58:58.399Z,50.70
2023-04-01T22:02:40.673Z,29.60
2023-04-01T22:06:25.473Z,27.90
2023-04-01T22:10:03.024Z,20.80
2023-04-01T22:13:37.989Z,17.30
2023-04-01T22:17:09.090Z,20.10
2023-04-01T22:21:31.836Z,24.20
2023-04-01T22:25:07.397Z,32.00
2023-04-01T22:28:56.942Z,39.00
2023-04-01T22:33:14.094Z,30.30
2023-04-01T22:36:16.892Z,23.20
2023-04-01T22:39:22.742Z,21.50
2023-04-01T22:43:14.834Z,46.10
2023-04-01T22:47:32.031Z,31.70
2023-04-01T22:51:19.142Z,26.90
2023-04-01T22:55:39.945Z,29.00
2023-04-01T22:59:44.446Z,42.40
2023-04-01T23:03:48.597Z,39.70
2023-04-01T23:08:01.391Z,43.80
2023-04-01T23:12:09.599Z,37.80
2023-04-01T23:16:17.897Z,55.40
2023-04-01T23:20:11.968Z,35.00
2023-04-01T23:24:34.552Z,37.70
2023-04-01T23:28:32.495Z,35.80
2023-04-01T23:32:40.637Z,37.60
2023-04-01T23:36:51.752Z,39.70
2023-04-01T23:41:00.320Z,33.70
2023-04-01T23:45:03.861Z,45.80
2023-04-01T23:49:14.940Z,38.40
2023-04-01T23:53:31.111Z,34.30
2023-04-01T23:57:36.457Z,43.10
